Terminal Aerodrome Forecast
Issued by NWS

Home | Current Version | Previous Version | Text Only | Print | Product List | Glossary Off
Versions: 1 2 3 4 5 6 7 8 9 10 11 12 13 14 15 16 17

000
FTUS43 KGRB 171900 AAA
TAFMTW
TAF AMD
KMTW 171907Z 1719/1818 30015G21KT P6SM -SN SCT025 BKN110
      TEMPO 1719/1721 1SM -SN SCT020 BKN040
     FM172300 32008KT P6SM BKN030
     FM181000 34006KT P6SM SCT030=

USA.gov is the U.S. government's official web portal to all federal, state and local government web resources and services.